This is the latest recevied weather packets stored in our database for station/object HB9SZU-7. If no packets are shown the sender has not sent any weather packets the latest 1 day(s).
| Time | Temp. | Humidity | Pressure | Rain* | Wind** | Luminosity | Snow |
|---|---|---|---|---|---|---|---|
| 1778102839 | 7.78° C | 80% | 930.6 hPa | - | - | - | - |
| 1778074040 | 8.33° C | 81% | 929.9 hPa | - | - | - | - |
| 1778073079 | 8.33° C | 81% | 929.4 hPa | - | - | - | - |
| 1778066509 | 9.44° C | 80% | 927.5 hPa | - | - | - | - |
| 1778065550 | 9.44° C | 80% | 927.9 hPa | - | - | - | - |
| 1778063630 | 9.44° C | 77% | 928 hPa | - | - | - | - |
| 1778062670 | 9.44° C | 77% | 927.7 hPa | - | - | - | - |
| 1778061710 | 9.44° C | 78% | 927.3 hPa | - | - | - | - |
| 1778060750 | 9.44° C | 78% | 927.3 hPa | - | - | - | - |
| 1778059790 | 9.44° C | 77% | 927.4 hPa | - | - | - | - |
| 1778057870 | 9.44° C | 80% | 927.5 hPa | - | - | - | - |
| 1778056910 | 9.44° C | 80% | 927.5 hPa | - | - | - | - |
| 1778055950 | 8.89° C | 81% | 927.5 hPa | - | - | - | - |
| 1778054989 | 8.89° C | 80% | 927.4 hPa | - | - | - | - |
| 1778052110 | 8.33° C | 80% | 927.7 hPa | - | - | - | - |
| 1778051150 | 8.33° C | 81% | 927.9 hPa | - | - | - | - |
| 1778050189 | 8.33° C | 83% | 927.9 hPa | - | - | - | - |
| 1778048270 | 8.33° C | 83% | 928.1 hPa | - | - | - | - |
| 1778047310 | 8.33° C | 83% | 928 hPa | - | - | - | - |
| 1778045390 | 8.33° C | 83% | 928.3 hPa | - | - | - | - |
| 1778044430 | 8.89° C | 83% | 928.5 hPa | - | - | - | - |
| 1778043469 | 8.89° C | 82% | 928.6 hPa | - | - | - | - |
| 1778041550 | 8.89° C | 83% | 928.9 hPa | - | - | - | - |
| 1778040589 | 8.89° C | 83% | 928.8 hPa | - | - | - | - |
| 1778039630 | 8.89° C | 83% | 929.1 hPa | - | - | - | - |
* Rain since midnight (hover to see other rain measurements)
** Current wind speed in m/s (hover to see current wind gust speed)